< < Back
Terminal Aerodrome Forecast


Current Version              Previous Versions:   1  2  3  4  5  6  7  8  9  

Terminal Aerodrome Forecast

240
FTUS42 KFFC 282324
TAFPDK
TAF
KPDK 282324Z 2900/2924 32010KT P6SM FEW150
     FM290300 35003KT P6SM SKC
     FM291200 08004KT P6SM SKC
     FM291500 12006KT P6SM FEW250
     FM292000 16007KT P6SM SCT050=

Latest METAR

263
SAUS70 KWBC 290600 RRB
MTRPDK
METAR KPDK 290553Z AUTO 32004KT 10SM CLR 02/M09 A3028 RMK AO2 SLP264
T00171089 10078 20006 51015


USA.gov is the U.S. government's official web portal to all federal, state and local government web resources and services.